createdAt,value
2023-02-25T00:00:18.145Z,719
2023-02-25T00:02:17.857Z,898
2023-02-25T00:04:17.614Z,705
2023-02-25T00:06:17.246Z,844
2023-02-25T00:08:17.821Z,887
2023-02-25T00:10:17.446Z,786
2023-02-25T00:12:18.173Z,888
2023-02-25T00:14:17.847Z,885
2023-02-25T00:16:17.681Z,937
2023-02-25T00:18:17.765Z,861
2023-02-25T00:20:17.375Z,728
2023-02-25T00:22:18.042Z,688
2023-02-25T00:24:17.710Z,617
2023-02-25T00:26:17.610Z,805
2023-02-25T00:28:17.236Z,704
2023-02-25T00:30:17.800Z,911
2023-02-25T00:32:17.687Z,840
2023-02-25T00:34:17.427Z,740
2023-02-25T00:36:18.125Z,738
2023-02-25T00:38:17.939Z,810
2023-02-25T00:40:17.573Z,869
2023-02-25T00:42:18.232Z,876
2023-02-25T00:44:17.824Z,822
2023-02-25T00:46:17.494Z,1022
2023-02-25T00:48:18.146Z,955
2023-02-25T00:50:17.730Z,740
2023-02-25T00:52:17.322Z,776
2023-02-25T00:54:17.875Z,902
2023-02-25T00:56:17.471Z,803
2023-02-25T00:58:18.096Z,804
2023-02-25T01:00:17.900Z,918
2023-02-25T01:02:17.617Z,934
2023-02-25T01:04:17.232Z,779
2023-02-25T01:06:18.087Z,782
2023-02-25T01:08:17.708Z,628
2023-02-25T01:10:17.264Z,655
2023-02-25T01:12:17.883Z,506
2023-02-25T01:14:17.508Z,794
2023-02-25T01:16:18.209Z,600
2023-02-25T01:18:18.008Z,840
2023-02-25T01:20:17.603Z,949
2023-02-25T01:22:18.249Z,603
2023-02-25T01:24:17.835Z,834
2023-02-25T01:26:17.447Z,879
2023-02-25T01:28:18.040Z,898
2023-02-25T01:30:17.598Z,611
2023-02-25T01:32:17.400Z,619
2023-02-25T01:34:18.133Z,821
2023-02-25T01:36:17.810Z,877
2023-02-25T01:38:17.570Z,869
2023-02-25T01:40:18.233Z,712
2023-02-25T01:42:17.830Z,669
2023-02-25T01:44:17.416Z,832
2023-02-25T01:46:18.092Z,884
2023-02-25T01:48:17.720Z,592
2023-02-25T01:50:17.496Z,581
2023-02-25T01:52:18.099Z,494
2023-02-25T01:54:17.715Z,851
2023-02-25T01:56:17.332Z,710
2023-02-25T01:58:17.944Z,751
2023-02-25T02:00:17.558Z,672
2023-02-25T02:02:18.250Z,819
2023-02-25T02:04:17.871Z,556
2023-02-25T02:06:17.499Z,662
2023-02-25T02:08:17.490Z,833
2023-02-25T02:10:18.290Z,862
2023-02-25T02:12:18.065Z,879
2023-02-25T02:14:17.657Z,585
2023-02-25T02:16:17.294Z,609
2023-02-25T02:18:18.047Z,730
2023-02-25T02:20:17.658Z,664
2023-02-25T02:22:17.264Z,893
2023-02-25T02:24:17.854Z,792
2023-02-25T02:26:17.644Z,729
2023-02-25T02:28:17.356Z,635
2023-02-25T02:30:17.294Z,589
2023-02-25T02:32:18.139Z,711
2023-02-25T02:34:17.742Z,669
2023-02-25T02:36:17.401Z,839
2023-02-25T02:38:18.063Z,827
2023-02-25T02:40:17.677Z,825
2023-02-25T02:42:17.316Z,532
2023-02-25T02:44:17.956Z,976
2023-02-25T02:46:17.696Z,667
2023-02-25T02:48:17.338Z,890
2023-02-25T02:50:18.004Z,821
2023-02-25T02:52:17.655Z,852
2023-02-25T02:54:17.307Z,852
2023-02-25T02:56:18.058Z,552
2023-02-25T02:58:17.658Z,839
2023-02-25T03:00:17.272Z,565
2023-02-25T03:02:17.890Z,668
2023-02-25T03:04:17.556Z,605
2023-02-25T03:06:17.176Z,720
2023-02-25T03:08:18.003Z,672
2023-02-25T03:10:17.659Z,839
2023-02-25T03:12:17.410Z,902
2023-02-25T03:14:17.948Z,625
2023-02-25T03:16:17.663Z,700
2023-02-25T03:18:17.387Z,776
2023-02-25T03:20:18.027Z,680
2023-02-25T03:22:17.681Z,839
2023-02-25T03:24:17.527Z,641
2023-02-25T03:26:18.107Z,858
2023-02-25T03:28:17.725Z,817
2023-02-25T03:30:18.135Z,788
2023-02-25T03:32:17.904Z,828
2023-02-25T03:34:17.756Z,822
2023-02-25T03:36:17.433Z,796
2023-02-25T03:38:18.044Z,554
2023-02-25T03:40:17.575Z,483
2023-02-25T03:42:17.291Z,491
2023-02-25T03:44:17.903Z,568
2023-02-25T03:46:17.475Z,791
2023-02-25T03:48:18.119Z,646
2023-02-25T03:50:17.693Z,872
2023-02-25T03:52:17.307Z,756
2023-02-25T03:54:17.928Z,854
2023-02-25T03:56:17.539Z,758
2023-02-25T03:58:18.154Z,689
2023-02-25T04:00:17.818Z,663
2023-02-25T04:02:17.656Z,794
2023-02-25T04:04:17.310Z,811
2023-02-25T04:06:17.952Z,899
2023-02-25T04:08:17.600Z,729
2023-02-25T04:10:17.249Z,899
2023-02-25T04:12:18.023Z,599
2023-02-25T04:14:17.751Z,861
2023-02-25T04:16:17.438Z,800
2023-02-25T04:18:17.284Z,560
2023-02-25T04:20:17.949Z,823
2023-02-25T04:22:17.584Z,660
2023-02-25T04:24:18.154Z,672
2023-02-25T04:26:17.782Z,694
2023-02-25T04:28:17.446Z,450
2023-02-25T04:30:18.035Z,805
2023-02-25T04:32:17.900Z,752
2023-02-25T04:34:17.554Z,553
2023-02-25T04:36:17.267Z,881
2023-02-25T04:38:17.868Z,674
2023-02-25T04:40:17.458Z,635
2023-02-25T04:42:18.094Z,787
2023-02-25T04:44:17.711Z,814
2023-02-25T04:46:17.408Z,686
2023-02-25T04:48:18.041Z,800
2023-02-25T04:50:17.733Z,803
2023-02-25T04:52:17.357Z,840
2023-02-25T04:54:18.024Z,792
2023-02-25T04:56:17.673Z,921
2023-02-25T04:58:17.310Z,862
2023-02-25T05:00:17.382Z,837
2023-02-25T05:02:18.005Z,827
2023-02-25T05:04:17.670Z,830
2023-02-25T05:06:17.293Z,910
2023-02-25T05:08:18.081Z,829
2023-02-25T05:10:17.728Z,726
2023-02-25T05:12:17.354Z,862
2023-02-25T05:14:17.945Z,794
2023-02-25T05:16:17.730Z,906
2023-02-25T05:18:17.527Z,873
2023-02-25T05:20:18.238Z,878
2023-02-25T05:22:20.372Z,732
2023-02-25T05:24:17.934Z,857
2023-02-25T05:26:18.104Z,668
2023-02-25T05:28:17.734Z,883
2023-02-25T05:30:17.666Z,845
2023-02-25T05:32:17.564Z,819
2023-02-25T05:34:17.281Z,869
2023-02-25T05:36:17.871Z,777
2023-02-25T05:38:17.451Z,747
2023-02-25T05:40:18.131Z,836
2023-02-25T05:42:17.788Z,742
2023-02-25T05:44:17.349Z,892
2023-02-25T05:46:18.032Z,925
2023-02-25T05:48:17.582Z,789
2023-02-25T05:50:18.271Z,692
2023-02-25T05:52:17.935Z,882
2023-02-25T05:54:17.821Z,770
2023-02-25T05:56:19.897Z,930
2023-02-25T05:58:17.527Z,963
2023-02-25T06:00:18.177Z,998
2023-02-25T06:02:17.923Z,790
2023-02-25T06:04:17.553Z,860
2023-02-25T06:06:18.191Z,785
2023-02-25T06:08:17.793Z,752
2023-02-25T06:10:17.411Z,756
2023-02-25T06:12:18.060Z,937
2023-02-25T06:14:17.647Z,997
2023-02-25T06:16:17.262Z,947
2023-02-25T06:18:18.033Z,832
2023-02-25T06:20:17.627Z,1048
2023-02-25T06:22:17.221Z,998
2023-02-25T06:24:17.819Z,849
2023-02-25T06:26:17.456Z,817
2023-02-25T06:28:18.040Z,901
2023-02-25T06:30:17.624Z,909
2023-02-25T06:32:17.388Z,773
2023-02-25T06:34:18.028Z,946
2023-02-25T06:36:17.682Z,604
2023-02-25T06:38:17.306Z,1029
2023-02-25T06:40:17.917Z,865
2023-02-25T06:42:17.630Z,828
2023-02-25T06:44:17.247Z,878
2023-02-25T06:46:17.921Z,782
2023-02-25T06:48:17.570Z,945
2023-02-25T06:50:18.176Z,1025
2023-02-25T06:52:17.897Z,949
2023-02-25T06:54:17.514Z,908
2023-02-25T06:56:18.229Z,779
2023-02-25T06:58:17.878Z,810
2023-02-25T07:00:17.448Z,873
2023-02-25T07:02:18.140Z,954
2023-02-25T07:04:17.818Z,1011
2023-02-25T07:06:17.436Z,1004
2023-02-25T07:08:18.165Z,954
2023-02-25T07:10:17.757Z,779
2023-02-25T07:12:17.480Z,631
2023-02-25T07:14:17.219Z,992
2023-02-25T07:16:17.857Z,881
2023-02-25T07:18:17.577Z,973
2023-02-25T07:20:18.175Z,1028
2023-02-25T07:22:17.782Z,958
2023-02-25T07:24:17.370Z,1026
2023-02-25T07:26:18.068Z,1094
2023-02-25T07:28:17.715Z,976
2023-02-25T07:30:17.302Z,983
2023-02-25T07:32:18.108Z,938
2023-02-25T07:34:17.852Z,1008
2023-02-25T07:36:17.602Z,941
2023-02-25T07:38:17.197Z,1025
2023-02-25T07:40:17.832Z,986
2023-02-25T07:42:17.422Z,810
2023-02-25T07:44:18.110Z,1082
2023-02-25T07:46:17.736Z,705
2023-02-25T07:48:17.352Z,1003
2023-02-25T07:50:17.963Z,851
2023-02-25T07:52:17.581Z,933
2023-02-25T07:54:18.210Z,949
2023-02-25T07:56:17.855Z,985
2023-02-25T07:58:17.523Z,953
2023-02-25T08:00:18.178Z,1028
2023-02-25T08:02:18.241Z,938
2023-02-25T08:04:17.872Z,918
2023-02-25T08:06:17.466Z,1052
2023-02-25T08:08:18.075Z,958
2023-02-25T08:10:17.690Z,925
2023-02-25T08:12:17.305Z,917
2023-02-25T08:14:17.904Z,893
2023-02-25T08:16:17.549Z,858
2023-02-25T08:18:17.261Z,852
2023-02-25T08:20:18.092Z,836
2023-02-25T08:22:17.703Z,762
2023-02-25T08:24:17.284Z,1029
2023-02-25T08:26:17.966Z,909
2023-02-25T08:28:17.728Z,992
2023-02-25T08:30:17.343Z,942
2023-02-25T08:32:18.018Z,970
2023-02-25T08:34:17.640Z,811
2023-02-25T08:36:17.323Z,920
2023-02-25T08:38:18.306Z,1055
2023-02-25T08:40:19.888Z,765
2023-02-25T08:42:17.671Z,894
2023-02-25T08:44:17.390Z,1021
2023-02-25T08:46:20.697Z,1037
2023-02-25T08:48:17.817Z,955
2023-02-25T08:50:17.478Z,1005
2023-02-25T08:52:18.090Z,1004
2023-02-25T08:54:17.912Z,998
2023-02-25T08:56:17.563Z,1023
2023-02-25T08:58:18.233Z,949
2023-02-25T09:00:17.857Z,1092
2023-02-25T09:02:17.493Z,1013
2023-02-25T09:04:18.406Z,1141
2023-02-25T09:06:18.058Z,913
2023-02-25T09:08:17.695Z,996
2023-02-25T09:10:17.329Z,1005
2023-02-25T09:12:17.937Z,860
2023-02-25T09:14:17.624Z,1056
2023-02-25T09:16:17.568Z,960
2023-02-25T09:18:17.470Z,1005
2023-02-25T09:20:18.135Z,987
2023-02-25T09:22:17.725Z,870
2023-02-25T09:24:17.439Z,1066
2023-02-25T09:26:18.084Z,925
2023-02-25T09:28:17.743Z,1012
2023-02-25T09:30:17.311Z,955
2023-02-25T09:32:18.052Z,860
2023-02-25T09:34:17.759Z,953
2023-02-25T09:36:17.366Z,979
2023-02-25T09:38:17.989Z,1044
2023-02-25T09:40:17.603Z,986
2023-02-25T09:42:17.217Z,938
2023-02-25T09:44:17.920Z,933
2023-02-25T09:46:17.605Z,899
2023-02-25T09:48:17.289Z,989
2023-02-25T09:50:17.927Z,970
2023-02-25T09:52:17.529Z,1017
2023-02-25T09:54:18.218Z,1028
2023-02-25T09:56:17.895Z,779
2023-02-25T09:58:17.535Z,826
2023-02-25T10:00:18.119Z,833
2023-02-25T10:02:18.007Z,731
2023-02-25T10:04:17.706Z,728
2023-02-25T10:06:17.369Z,708
2023-02-25T10:08:18.014Z,726
2023-02-25T10:10:17.682Z,576
2023-02-25T10:12:18.863Z,701
2023-02-25T10:14:17.704Z,679
2023-02-25T10:16:17.415Z,695
2023-02-25T10:18:18.142Z,622
2023-02-25T10:20:17.726Z,786
2023-02-25T10:22:17.580Z,541
2023-02-25T10:24:17.303Z,751
2023-02-25T10:26:18.177Z,804
2023-02-25T10:28:17.860Z,752
2023-02-25T10:30:17.503Z,592
2023-02-25T10:32:18.403Z,810
2023-02-25T10:34:18.164Z,697
2023-02-25T10:36:17.776Z,662
2023-02-25T10:38:17.387Z,808
2023-02-25T10:40:17.971Z,950
2023-02-25T10:42:17.596Z,827
2023-02-25T10:44:17.275Z,694
2023-02-25T10:46:17.918Z,692
2023-02-25T10:48:17.563Z,847
2023-02-25T10:50:18.472Z,597
2023-02-25T10:52:18.250Z,867
2023-02-25T10:54:21.935Z,632
2023-02-25T10:56:17.615Z,805
2023-02-25T10:58:17.318Z,969
2023-02-25T11:00:17.887Z,774
2023-02-25T11:02:17.470Z,837
2023-02-25T11:04:19.700Z,873
2023-02-25T11:06:17.345Z,778
2023-02-25T11:08:17.937Z,799
2023-02-25T11:10:17.469Z,745
2023-02-25T11:12:18.168Z,682
2023-02-25T11:14:18.045Z,861
2023-02-25T11:16:17.720Z,885
2023-02-25T11:18:17.549Z,817
2023-02-25T11:20:18.288Z,704
2023-02-25T11:22:17.990Z,839
2023-02-25T11:24:17.646Z,858
2023-02-25T11:26:17.294Z,996
2023-02-25T11:28:18.307Z,657
2023-02-25T11:30:18.188Z,894
2023-02-25T11:32:17.831Z,965
2023-02-25T11:34:17.518Z,972
2023-02-25T11:36:18.103Z,974
2023-02-25T11:38:17.726Z,790
2023-02-25T11:40:17.309Z,969
2023-02-25T11:42:18.194Z,904
2023-02-25T11:44:17.799Z,1011
2023-02-25T11:46:17.480Z,949
2023-02-25T11:48:18.329Z,1038
2023-02-25T11:50:18.045Z,815
2023-02-25T11:52:17.674Z,825
2023-02-25T11:54:17.453Z,965
2023-02-25T11:56:18.042Z,757
2023-02-25T11:58:17.683Z,896
2023-02-25T12:00:17.276Z,868
2023-02-25T12:02:17.950Z,881
2023-02-25T12:04:17.534Z,911
2023-02-25T12:06:18.181Z,1021
2023-02-25T12:08:17.940Z,1033
2023-02-25T12:10:17.682Z,868
2023-02-25T12:12:17.395Z,907
2023-02-25T12:14:17.961Z,907
2023-02-25T12:16:17.653Z,807
2023-02-25T12:18:17.424Z,963
2023-02-25T12:20:18.058Z,837
2023-02-25T12:22:17.645Z,811
2023-02-25T12:24:17.209Z,963
2023-02-25T12:26:17.822Z,856
2023-02-25T12:28:17.452Z,892
2023-02-25T12:30:18.046Z,847
2023-02-25T12:32:17.695Z,780
2023-02-25T12:34:17.313Z,822
2023-02-25T12:36:17.959Z,757
2023-02-25T12:38:17.580Z,880
2023-02-25T12:40:18.167Z,723
2023-02-25T12:42:17.755Z,962
2023-02-25T12:44:17.390Z,802
2023-02-25T12:46:17.970Z,709
2023-02-25T12:48:17.634Z,828
2023-02-25T12:50:17.203Z,922
2023-02-25T12:52:17.833Z,963
2023-02-25T12:54:17.496Z,753
2023-02-25T12:56:18.419Z,850
2023-02-25T12:58:18.007Z,842
2023-02-25T13:00:17.609Z,957
2023-02-25T13:02:17.213Z,943
2023-02-25T13:04:17.911Z,993
2023-02-25T13:06:17.591Z,675
2023-02-25T13:08:18.163Z,815
2023-02-25T13:10:17.727Z,758
2023-02-25T13:12:17.415Z,757
2023-02-25T13:14:18.037Z,911
2023-02-25T13:16:17.630Z,770
2023-02-25T13:18:17.464Z,589
2023-02-25T13:20:18.169Z,961
2023-02-25T13:22:17.717Z,954
2023-02-25T13:24:17.396Z,940
2023-02-25T13:26:17.921Z,898
2023-02-25T13:28:17.536Z,845
2023-02-25T13:30:18.243Z,963
2023-02-25T13:32:17.937Z,926
2023-02-25T13:34:17.603Z,851
2023-02-25T13:36:18.258Z,858
2023-02-25T13:38:17.880Z,785
2023-02-25T13:40:17.606Z,899
2023-02-25T13:42:18.268Z,950
2023-02-25T13:44:17.841Z,792
2023-02-25T13:46:17.510Z,918
2023-02-25T13:48:18.182Z,844
2023-02-25T13:50:17.945Z,782
2023-02-25T13:52:17.527Z,767
2023-02-25T13:54:18.253Z,916
2023-02-25T13:56:17.868Z,873
2023-02-25T13:58:17.609Z,942
2023-02-25T14:00:17.251Z,813
2023-02-25T14:02:18.012Z,920
2023-02-25T14:04:17.793Z,879
2023-02-25T14:06:17.467Z,723
2023-02-25T14:08:18.056Z,766
2023-02-25T14:10:17.599Z,763
2023-02-25T14:12:17.264Z,935
2023-02-25T14:14:17.984Z,806
2023-02-25T14:16:17.683Z,862
2023-02-25T14:18:17.820Z,637
2023-02-25T14:20:17.516Z,726
2023-02-25T14:22:18.121Z,744
2023-02-25T14:24:17.799Z,940
2023-02-25T14:26:17.617Z,843
2023-02-25T14:28:17.294Z,943
2023-02-25T14:30:17.883Z,856
2023-02-25T14:32:17.582Z,907
2023-02-25T14:34:18.082Z,715
2023-02-25T14:36:17.711Z,812
2023-02-25T14:38:17.445Z,855
2023-02-25T14:40:18.162Z,639
2023-02-25T14:42:17.816Z,632
2023-02-25T14:44:17.387Z,763
2023-02-25T14:46:18.065Z,995
2023-02-25T14:48:17.747Z,832
2023-02-25T14:50:17.353Z,862
2023-02-25T14:52:17.988Z,704
2023-02-25T14:54:17.586Z,851
2023-02-25T14:56:18.153Z,654
2023-02-25T14:58:17.780Z,718
2023-02-25T15:00:17.407Z,703
2023-02-25T15:02:18.097Z,778
2023-02-25T15:04:17.734Z,923
2023-02-25T15:06:17.362Z,737
2023-02-25T15:08:18.017Z,854
2023-02-25T15:10:17.578Z,686
2023-02-25T15:12:18.150Z,701
2023-02-25T15:14:17.863Z,762
2023-02-25T15:16:17.596Z,902
2023-02-25T15:18:20.223Z,576
2023-02-25T15:20:17.859Z,810
2023-02-25T15:22:17.587Z,779
2023-02-25T15:24:17.222Z,813
2023-02-25T15:26:17.838Z,729
2023-02-25T15:28:17.458Z,778
2023-02-25T15:30:18.072Z,897
2023-02-25T15:32:17.995Z,623
2023-02-25T15:34:17.651Z,869
2023-02-25T15:36:17.280Z,800
2023-02-25T15:38:17.940Z,668
2023-02-25T15:40:17.577Z,834
2023-02-25T15:42:18.150Z,652
2023-02-25T15:44:17.790Z,790
2023-02-25T15:46:17.410Z,881
2023-02-25T15:48:18.019Z,947
2023-02-25T15:50:17.816Z,867
2023-02-25T15:52:17.360Z,832
2023-02-25T15:54:17.990Z,759
2023-02-25T15:56:20.133Z,696
2023-02-25T15:58:17.792Z,820
2023-02-25T16:00:17.472Z,831
2023-02-25T16:02:18.165Z,751
2023-02-25T16:04:17.797Z,761
2023-02-25T16:06:17.554Z,739
2023-02-25T16:08:18.118Z,641
2023-02-25T16:10:17.767Z,818
2023-02-25T16:12:17.400Z,796
2023-02-25T16:14:18.126Z,820
2023-02-25T16:16:17.788Z,754
2023-02-25T16:18:17.552Z,786
2023-02-25T16:20:18.262Z,808
2023-02-25T16:22:18.084Z,882
2023-02-25T16:24:17.697Z,680
2023-02-25T16:26:17.287Z,866
2023-02-25T16:28:18.023Z,740
2023-02-25T16:30:17.674Z,814
2023-02-25T16:32:17.436Z,639
2023-02-25T16:34:18.190Z,835
2023-02-25T16:36:17.779Z,589
2023-02-25T16:38:17.972Z,518
2023-02-25T16:40:17.826Z,692
2023-02-25T16:42:17.522Z,622
2023-02-25T16:44:18.200Z,885
2023-02-25T16:46:17.782Z,726
2023-02-25T16:48:17.472Z,794
2023-02-25T16:50:18.147Z,563
2023-02-25T16:52:17.755Z,850
2023-02-25T16:54:17.402Z,868
2023-02-25T16:56:18.067Z,920
2023-02-25T16:58:17.699Z,859
2023-02-25T17:00:17.371Z,818
2023-02-25T17:02:17.978Z,759
2023-02-25T17:04:17.614Z,829
2023-02-25T17:06:17.460Z,865
2023-02-25T17:08:18.235Z,629
2023-02-25T17:10:17.876Z,901
2023-02-25T17:12:17.570Z,600
2023-02-25T17:14:18.208Z,745
2023-02-25T17:16:19.297Z,652
2023-02-25T17:18:18.113Z,739
2023-02-25T17:20:17.669Z,760
2023-02-25T17:22:17.316Z,660
2023-02-25T17:24:17.970Z,933
2023-02-25T17:26:17.620Z,676
2023-02-25T17:28:17.385Z,918
2023-02-25T17:30:18.019Z,866
2023-02-25T17:32:17.634Z,837
2023-02-25T17:34:17.366Z,882
2023-02-25T17:36:18.017Z,792
2023-02-25T17:38:17.690Z,614
2023-02-25T17:40:17.557Z,939
2023-02-25T17:42:18.203Z,747
2023-02-25T17:44:17.777Z,867
2023-02-25T17:46:17.545Z,988
2023-02-25T17:48:18.207Z,887
2023-02-25T17:50:17.814Z,896
2023-02-25T17:52:17.453Z,752
2023-02-25T17:54:18.148Z,707
2023-02-25T17:56:17.874Z,879
2023-02-25T17:58:17.555Z,799
2023-02-25T18:00:18.167Z,861
2023-02-25T18:02:17.877Z,714
2023-02-25T18:04:17.499Z,863
2023-02-25T18:06:18.175Z,857
2023-02-25T18:08:17.780Z,872
2023-02-25T18:10:17.457Z,805
2023-02-25T18:12:18.027Z,782
2023-02-25T18:14:17.606Z,774
2023-02-25T18:16:17.356Z,773
2023-02-25T18:18:17.221Z,853
2023-02-25T18:20:17.851Z,785
2023-02-25T18:22:17.530Z,1075
2023-02-25T18:24:18.145Z,902
2023-02-25T18:26:17.930Z,777
2023-02-25T18:28:17.630Z,636
2023-02-25T18:30:17.322Z,860
2023-02-25T18:32:18.111Z,870
2023-02-25T18:34:18.001Z,868
2023-02-25T18:36:17.882Z,948
2023-02-25T18:38:17.467Z,846
2023-02-25T18:40:18.034Z,875
2023-02-25T18:42:17.652Z,913
2023-02-25T18:44:17.304Z,860
2023-02-25T18:46:17.967Z,860
2023-02-25T18:48:17.692Z,707
2023-02-25T18:50:17.324Z,845
2023-02-25T18:52:18.123Z,832
2023-02-25T18:54:18.200Z,974
2023-02-25T18:56:17.832Z,880
2023-02-25T18:58:17.740Z,835
2023-02-25T19:00:17.906Z,936
2023-02-25T19:02:17.867Z,892
2023-02-25T19:04:17.717Z,659
2023-02-25T19:06:17.604Z,710
2023-02-25T19:08:17.342Z,856
2023-02-25T19:10:18.179Z,972
2023-02-25T19:12:17.857Z,867
2023-02-25T19:14:17.565Z,777
2023-02-25T19:16:18.199Z,751
2023-02-25T19:18:18.063Z,829
2023-02-25T19:20:17.850Z,949
2023-02-25T19:22:17.503Z,934
2023-02-25T19:24:18.122Z,906
2023-02-25T19:26:17.812Z,921
2023-02-25T19:28:17.414Z,907
2023-02-25T19:30:18.056Z,918
2023-02-25T19:32:17.710Z,865
2023-02-25T19:34:17.592Z,856
2023-02-25T19:36:18.156Z,580
2023-02-25T19:38:17.779Z,681
2023-02-25T19:40:17.424Z,881
2023-02-25T19:42:18.109Z,855
2023-02-25T19:44:17.648Z,715
2023-02-25T19:46:17.398Z,805
2023-02-25T19:48:18.034Z,923
2023-02-25T19:50:17.622Z,895
2023-02-25T19:52:17.219Z,897
2023-02-25T19:54:17.980Z,831
2023-02-25T19:56:17.688Z,883
2023-02-25T19:58:17.287Z,905
2023-02-25T20:00:17.938Z,896
2023-02-25T20:02:17.556Z,617
2023-02-25T20:04:18.221Z,738
2023-02-25T20:06:17.830Z,951
2023-02-25T20:08:17.438Z,701
2023-02-25T20:10:18.063Z,916
2023-02-25T20:12:17.808Z,864
2023-02-25T20:14:17.400Z,899
2023-02-25T20:16:18.052Z,596
2023-02-25T20:18:17.927Z,971
2023-02-25T20:20:17.502Z,780
2023-02-25T20:22:18.226Z,758
2023-02-25T20:24:17.952Z,855
2023-02-25T20:26:17.563Z,881
2023-02-25T20:28:18.138Z,875
2023-02-25T20:30:17.748Z,703
2023-02-25T20:32:17.442Z,834
2023-02-25T20:34:17.292Z,887
2023-02-25T20:36:17.937Z,811
2023-02-25T20:38:17.684Z,883
2023-02-25T20:40:17.337Z,973
2023-02-25T20:42:17.901Z,969
2023-02-25T20:44:17.485Z,760
2023-02-25T20:46:17.338Z,679
2023-02-25T20:48:18.183Z,972
2023-02-25T20:50:17.792Z,723
2023-02-25T20:52:17.452Z,835
2023-02-25T20:54:18.199Z,714
2023-02-25T20:56:17.801Z,908
2023-02-25T20:58:17.629Z,926
2023-02-25T21:00:17.232Z,914
2023-02-25T21:02:18.015Z,917
2023-02-25T21:04:17.654Z,751
2023-02-25T21:06:17.368Z,674
2023-02-25T21:08:17.967Z,862
2023-02-25T21:10:17.699Z,779
2023-02-25T21:12:17.409Z,612
2023-02-25T21:14:17.334Z,685
2023-02-25T21:16:18.000Z,775
2023-02-25T21:18:17.849Z,720
2023-02-25T21:20:17.490Z,744
2023-02-25T21:22:18.126Z,841
2023-02-25T21:24:17.846Z,861
2023-02-25T21:26:17.391Z,810
2023-02-25T21:28:17.969Z,639
2023-02-25T21:30:17.554Z,992
2023-02-25T21:32:18.292Z,915
2023-02-25T21:34:18.005Z,572
2023-02-25T21:36:17.580Z,678
2023-02-25T21:38:17.153Z,656
2023-02-25T21:40:17.830Z,855
2023-02-25T21:42:17.503Z,635
2023-02-25T21:44:18.194Z,890
2023-02-25T21:46:17.881Z,947
2023-02-25T21:48:17.481Z,919
2023-02-25T21:50:18.066Z,648
2023-02-25T21:52:17.654Z,841
2023-02-25T21:54:17.269Z,905
2023-02-25T21:56:18.091Z,621
2023-02-25T21:58:17.705Z,674
2023-02-25T22:00:17.328Z,927
2023-02-25T22:02:18.169Z,851
2023-02-25T22:04:17.887Z,804
2023-02-25T22:06:17.458Z,651
2023-02-25T22:08:18.054Z,767
2023-02-25T22:10:17.691Z,834
2023-02-25T22:12:17.303Z,726
2023-02-25T22:14:18.027Z,741
2023-02-25T22:16:17.687Z,643
2023-02-25T22:18:17.832Z,906
2023-02-25T22:20:17.521Z,934
2023-02-25T22:22:18.116Z,1027
2023-02-25T22:24:17.692Z,978
2023-02-25T22:26:17.310Z,908
2023-02-25T22:28:18.003Z,986
2023-02-25T22:30:18.190Z,903
2023-02-25T22:32:17.847Z,1055
2023-02-25T22:34:17.526Z,1067
2023-02-25T22:36:18.165Z,1121
2023-02-25T22:38:17.802Z,1063
2023-02-25T22:40:17.492Z,1068
2023-02-25T22:42:18.213Z,1002
2023-02-25T22:44:17.819Z,1102
2023-02-25T22:46:17.400Z,1221
2023-02-25T22:48:18.115Z,1170
2023-02-25T22:50:17.910Z,1455
2023-02-25T22:52:17.562Z,1568
2023-02-25T22:54:18.518Z,1717
2023-02-25T22:56:17.357Z,1769
2023-02-25T22:58:18.032Z,1858
2023-02-25T23:00:17.747Z,1918
2023-02-25T23:02:17.415Z,1972
2023-02-25T23:04:18.231Z,0
2023-02-25T23:06:18.056Z,0
2023-02-25T23:08:17.247Z,0
2023-02-25T23:10:17.848Z,0
2023-02-25T23:12:17.492Z,0
2023-02-25T23:14:18.099Z,0
2023-02-25T23:16:17.873Z,0
2023-02-25T23:18:17.976Z,0
2023-02-25T23:20:17.660Z,0
2023-02-25T23:22:17.240Z,0
2023-02-25T23:24:17.880Z,0
2023-02-25T23:26:17.481Z,0
2023-02-25T23:28:18.103Z,0
2023-02-25T23:30:17.669Z,0
2023-02-25T23:32:17.362Z,0
2023-02-25T23:34:18.106Z,0
2023-02-25T23:36:17.668Z,0
2023-02-25T23:38:17.319Z,0
2023-02-25T23:40:17.925Z,1928
2023-02-25T23:42:17.516Z,0
2023-02-25T23:44:17.257Z,0
2023-02-25T23:46:18.057Z,1896
2023-02-25T23:48:17.783Z,1933
2023-02-25T23:50:17.428Z,1883
2023-02-25T23:52:18.139Z,1758
2023-02-25T23:54:17.869Z,1966
2023-02-25T23:56:17.475Z,1855
2023-02-25T23:58:18.230Z,1702
